Time;durP1;ratioP1;P1;durP2;ratioP2;P2;SDS_P1;SDS_P2;PMS_P1;PMS_P2;Temp;Humidity;BMP_temperature;BMP_pressure;BME280_temperature;BME280_humidity;BME280_pressure;Samples;Min_cycle;Max_cycle;Signal;HPM_P1;HPM_P2
2021/12/17 00:00:30;;;;;;;;;;;;;;;;;;2058541;28;951;-78
2021/12/17 00:02:06;;;;;;;;;;;;;;;;;;2060774;28;1899;-77
2021/12/17 00:03:11;;;;;;;;;;;;;;;;;;2058253;28;1066;-78
2021/12/17 00:04:26;;;;;;;;;;;;;;;;;;2042563;29;1633;-77
2021/12/17 00:05:43;;;;;;;;;;;;;;;;;;2043986;29;1923;-78
2021/12/17 00:06:47;;;;;;;;;;;;;;;;;;2052519;28;1545;-78
2021/12/17 00:07:48;;;;;;;;;;;;;;;;;;2050119;29;1667;-78
2021/12/17 00:08:52;;;;;;;;;;;;;;;;;;2042373;29;1671;-77
2021/12/17 00:09:53;;;;;;;;;;;;;;;;;;2050172;28;1774;-77
2021/12/17 00:10:55;;;;;;;;;;;;;;;;;;2058243;28;1318;-77
2021/12/17 00:11:56;;;;;;;;;;;;;;;;;;2057991;28;996;-78
2021/12/17 00:12:57;;;;;;;;;;;;;;;;;;2057980;28;1536;-80
2021/12/17 00:13:58;;;;;;;;;;;;;;;;;;2058282;28;935;-77
2021/12/17 00:15:00;;;;;;;;;;;;;;;;;;2057814;28;1489;-77
2021/12/17 00:16:01;;;;;;;;;;;;;;;;;;2050326;28;1838;-77
2021/12/17 00:17:06;;;;;;;;;;;;;;;;;;2050276;28;1339;-77
2021/12/17 00:18:13;;;;;;;;;;;;;;;;;;2058106;28;1512;-77
2021/12/17 00:19:23;;;;;;;;;;;;;;;;;;2058099;28;1718;-78
2021/12/17 00:20:49;;;;;;;;;;;;;;;;;;2049807;29;1530;-77
2021/12/17 00:48:39;;;;;;;;;;;;;;;;;;2057950;28;1373;-78
2021/12/17 00:49:50;;;;;;;;;;;;;;;;;;2049953;28;1659;-76
2021/12/17 00:52:08;;;;;;;;;;;;;;;;;;2033716;29;1295;-77
2021/12/17 00:53:15;;;;;;;;;;;;;;;;;;2045126;28;1258;-77
2021/12/17 00:54:21;;;;;;;;;;;;;;;;;;2042937;29;1570;-77
2021/12/17 00:55:22;;;;;;;;;;;;;;;;;;2041749;29;1980;-77
2021/12/17 00:56:24;;;;;;;;;;;;;;;;;;2039117;29;1852;-77
2021/12/17 00:57:30;;;;;;;;;;;;;;;;;;2057912;28;1336;-78
2021/12/17 00:58:31;;;;;;;;;;;;;;;;;;2058037;28;1395;-77
2021/12/17 00:59:32;;;;;;;;;;;;;;;;;;2049568;29;1536;-77
2021/12/17 01:00:33;;;;;;;;;;;;;;;;;;2049850;28;1359;-77
2021/12/17 01:01:35;;;;;;;;;;;;;;;;;;2049546;28;2093;-77
2021/12/17 01:02:37;;;;;;;;;;;;;;;;;;2049904;28;935;-77
2021/12/17 01:03:39;;;;;;;;;;;;;;;;;;2057759;28;1181;-76
2021/12/17 01:04:43;;;;;;;;;;;;;;;;;;2057967;28;1319;-77
2021/12/17 01:05:44;;;;;;;;;;;;;;;;;;2049631;28;1692;-77
2021/12/17 01:06:46;;;;;;;;;;;;;;;;;;2057661;28;2161;-77
2021/12/17 01:07:49;;;;;;;;;;;;;;;;;;2057414;28;1407;-79
2021/12/17 01:08:52;;;;;;;;;;;;;;;;;;2057964;28;1304;-77
2021/12/17 01:09:56;;;;;;;;;;;;;;;;;;2049776;29;1716;-77
2021/12/17 01:10:58;;;;;;;;;;;;;;;;;;2041589;29;1982;-80
2021/12/17 01:12:20;;;;;;;;;;;;;;;;;;2052497;28;674;-77
2021/12/17 01:13:36;;;;;;;;;;;;;;;;;;2049434;29;1697;-76
2021/12/17 01:14:58;;;;;;;;;;;;;;;;;;2036348;29;1494;-77
2021/12/17 01:16:22;;;;;;;;;;;;;;;;;;2043995;28;2598;-77
2021/12/17 01:17:42;;;;;;;;;;;;;;;;;;2049712;29;1512;-78
2021/12/17 01:19:10;;;;;;;;;;;;;;;;;;2052422;28;1344;-76
2021/12/17 01:21:43;;;;;;;;;;;;;;;;;;2047418;28;1856;-76
2021/12/17 01:23:09;;;;;;;;;;;;;;;;;;2044518;29;1436;-77
2021/12/17 01:24:52;;;;;;;;;;;;;;;;;;2046668;29;1332;-77
2021/12/17 01:36:06;;;;;;;;;;;;;;;;;;2057824;28;1905;-77
2021/12/17 01:37:55;;;;;;;;;;;;;;;;;;2049913;28;1484;-77
2021/12/17 01:42:53;;;;;;;;;;;;;;;;;;2034645;28;1343;-77
2021/12/17 01:43:55;;;;;;;;;;;;;;;;;;2041707;29;1368;-77
2021/12/17 01:44:56;;;;;;;;;;;;;;;;;;2041721;29;1535;-77
2021/12/17 01:45:58;;;;;;;;;;;;;;;;;;2051580;28;1985;-75
2021/12/17 01:46:59;;;;;;;;;;;;;;;;;;2065203;28;1243;-77
2021/12/17 01:48:02;;;;;;;;;;;;;;;;;;2065535;28;1261;-76
2021/12/17 01:49:22;;;;;;;;;;;;;;;;;;2065503;28;1421;-76
2021/12/17 01:56:04;;;;;;;;;;;;;;;;;;2051672;28;1952;-76
2021/12/17 01:59:45;;;;;;;;;;;;;;;;;;2057116;28;1281;-75
2021/12/17 02:00:47;;;;;;;;;;;;;;;;;;2049750;28;2068;-77
2021/12/17 02:01:49;;;;;;;;;;;;;;;;;;2049456;28;1270;-76
2021/12/17 02:02:51;;;;;;;;;;;;;;;;;;2049658;28;1416;-75
2021/12/17 02:04:04;;;;;;;;;;;;;;;;;;2049460;29;1707;-76
2021/12/17 02:05:06;;;;;;;;;;;;;;;;;;2049830;28;1709;-75
2021/12/17 02:06:06;;;;;;;;;;;;;;;;;;2057552;28;1194;-76
2021/12/17 02:07:08;;;;;;;;;;;;;;;;;;2049023;29;1524;-76
2021/12/17 02:08:10;;;;;;;;;;;;;;;;;;2041826;29;1543;-76
2021/12/17 02:09:33;;;;;;;;;;;;;;;;;;2057408;28;1541;-75
2021/12/17 02:20:11;;;;;;;;;;;;;;;;;;2034117;29;1507;-76
2021/12/17 02:29:56;;;;;;;;;;;;;;;;;;2051816;28;1341;-75
2021/12/17 02:31:11;;;;;;;;;;;;;;;;;;2049352;29;1749;-76
2021/12/17 02:32:13;;;;;;;;;;;;;;;;;;2051497;28;1364;-77
2021/12/17 02:33:14;;;;;;;;;;;;;;;;;;2056628;28;1270;-76
2021/12/17 02:34:32;;;;;;;;;;;;;;;;;;2057310;28;1224;-76
2021/12/17 02:35:37;;;;;;;;;;;;;;;;;;2056928;28;1923;-76
2021/12/17 02:36:41;;;;;;;;;;;;;;;;;;2054988;28;1897;-75
2021/12/17 02:37:47;;;;;;;;;;;;;;;;;;2049676;28;1404;-76
2021/12/17 02:39:39;;;;;;;;;;;;;;;;;;2058788;28;1071;-76
2021/12/17 02:42:33;;;;;;;;;;;;;;;;;;2040053;28;927;-77
2021/12/17 02:46:14;;;;;;;;;;;;;;;;;;2060119;28;2052;-76
2021/12/17 02:47:15;;;;;;;;;;;;;;;;;;2056726;28;1148;-76
2021/12/17 02:48:18;;;;;;;;;;;;;;;;;;2065728;28;1396;-75
2021/12/17 02:49:19;;;;;;;;;;;;;;;;;;2064804;28;1194;-77
2021/12/17 02:50:21;;;;;;;;;;;;;;;;;;2057486;28;1121;-76
2021/12/17 02:51:23;;;;;;;;;;;;;;;;;;2064955;28;1399;-76
2021/12/17 02:52:28;;;;;;;;;;;;;;;;;;2057489;28;1313;-76
2021/12/17 02:53:31;;;;;;;;;;;;;;;;;;2065720;28;1804;-76
2021/12/17 02:54:33;;;;;;;;;;;;;;;;;;2065327;28;1471;-77
2021/12/17 02:55:35;;;;;;;;;;;;;;;;;;2065124;28;1955;-77
2021/12/17 02:56:36;;;;;;;;;;;;;;;;;;2065272;28;1622;-76
2021/12/17 02:57:37;;;;;;;;;;;;;;;;;;2065205;28;1263;-76
2021/12/17 02:58:38;;;;;;;;;;;;;;;;;;2065406;28;1184;-76
2021/12/17 02:59:40;;;;;;;;;;;;;;;;;;2064924;28;1865;-76
2021/12/17 03:00:42;;;;;;;;;;;;;;;;;;2065380;28;1682;-77
2021/12/17 03:01:45;;;;;;;;;;;;;;;;;;2056863;28;1835;-77
2021/12/17 03:02:47;;;;;;;;;;;;;;;;;;2057278;28;1200;-76
2021/12/17 03:03:49;;;;;;;;;;;;;;;;;;2057263;28;820;-76
2021/12/17 03:04:51;;;;;;;;;;;;;;;;;;2065447;28;1304;-76
2021/12/17 03:05:53;;;;;;;;;;;;;;;;;;2065241;28;1387;-76
2021/12/17 03:06:54;;;;;;;;;;;;;;;;;;2065232;28;900;-76
2021/12/17 03:07:57;;;;;;;;;;;;;;;;;;2057069;28;1273;-77
2021/12/17 03:08:58;;;;;;;;;;;;;;;;;;2049252;28;1228;-77
2021/12/17 03:10:03;;;;;;;;;;;;;;;;;;2049190;29;1711;-76
2021/12/17 03:11:05;;;;;;;;;;;;;;;;;;2049355;28;1867;-76
2021/12/17 03:12:08;;;;;;;;;;;;;;;;;;2057121;28;1629;-76
2021/12/17 03:13:11;;;;;;;;;;;;;;;;;;2065407;28;1228;-77
2021/12/17 03:14:13;;;;;;;;;;;;;;;;;;2057025;28;1562;-76
2021/12/17 03:15:21;;;;;;;;;;;;;;;;;;2057205;28;1325;-76
2021/12/17 03:16:30;;;;;;;;;;;;;;;;;;2060842;28;2036;-76
2021/12/17 03:17:52;;;;;;;;;;;;;;;;;;2057035;28;1355;-77
2021/12/17 03:19:11;;;;;;;;;;;;;;;;;;2056799;28;1337;-76
2021/12/17 03:24:13;;;;;;;;;;;;;;;;;;2050623;29;1576;-77
2021/12/17 03:25:13;;;;;;;;;;;;;;;;;;2050640;29;1391;-76
2021/12/17 03:26:16;;;;;;;;;;;;;;;;;;2047336;29;1852;-78
2021/12/17 03:27:17;;;;;;;;;;;;;;;;;;2034662;29;1317;-77
2021/12/17 03:28:18;;;;;;;;;;;;;;;;;;2042762;29;1207;-77
2021/12/17 03:29:20;;;;;;;;;;;;;;;;;;2042450;29;1270;-77
2021/12/17 03:30:24;;;;;;;;;;;;;;;;;;2043246;29;1609;-78
2021/12/17 03:31:27;;;;;;;;;;;;;;;;;;2042192;29;1461;-77
2021/12/17 03:32:28;;;;;;;;;;;;;;;;;;2035113;29;1284;-76
2021/12/17 03:33:32;;;;;;;;;;;;;;;;;;2042406;29;1175;-77
2021/12/17 03:34:34;;;;;;;;;;;;;;;;;;2042816;29;1242;-77
2021/12/17 03:35:34;;;;;;;;;;;;;;;;;;2034521;29;1305;-76
2021/12/17 03:36:36;;;;;;;;;;;;;;;;;;2035027;29;2039;-76
2021/12/17 03:37:37;;;;;;;;;;;;;;;;;;2034610;29;1179;-76
2021/12/17 03:38:39;;;;;;;;;;;;;;;;;;2042714;29;1019;-76
2021/12/17 03:39:42;;;;;;;;;;;;;;;;;;2042405;29;1419;-77
2021/12/17 03:40:44;;;;;;;;;;;;;;;;;;2034900;29;1640;-76
2021/12/17 03:41:51;;;;;;;;;;;;;;;;;;2042939;29;1085;-77
2021/12/17 03:43:02;;;;;;;;;;;;;;;;;;2050386;29;1226;-76
2021/12/17 03:44:04;;;;;;;;;;;;;;;;;;2050410;29;1281;-76
2021/12/17 03:45:23;;;;;;;;;;;;;;;;;;2050580;29;984;-76
2021/12/17 03:46:41;;;;;;;;;;;;;;;;;;2057052;28;2188;-76
2021/12/17 03:47:42;;;;;;;;;;;;;;;;;;2050408;29;1222;-77
2021/12/17 03:48:54;;;;;;;;;;;;;;;;;;2052059;28;1264;-76
2021/12/17 03:49:55;;;;;;;;;;;;;;;;;;2050254;29;1250;-77
2021/12/17 03:50:57;;;;;;;;;;;;;;;;;;2049917;28;2086;-76
2021/12/17 03:52:05;;;;;;;;;;;;;;;;;;2042613;29;1259;-78
2021/12/17 03:53:09;;;;;;;;;;;;;;;;;;2043549;29;1772;-76
2021/12/17 03:54:12;;;;;;;;;;;;;;;;;;2042799;29;1624;-76
2021/12/17 03:55:14;;;;;;;;;;;;;;;;;;2042535;29;1429;-76
2021/12/17 03:56:20;;;;;;;;;;;;;;;;;;2041937;29;1973;-76
2021/12/17 03:57:22;;;;;;;;;;;;;;;;;;2042657;29;1604;-76
2021/12/17 03:58:26;;;;;;;;;;;;;;;;;;2042286;29;1397;-77
2021/12/17 03:59:27;;;;;;;;;;;;;;;;;;2042410;29;864;-79
2021/12/17 04:00:30;;;;;;;;;;;;;;;;;;2050048;29;1296;-77
2021/12/17 04:01:34;;;;;;;;;;;;;;;;;;2055571;28;2018;-76
2021/12/17 04:02:36;;;;;;;;;;;;;;;;;;2050255;29;1852;-77
2021/12/17 04:03:37;;;;;;;;;;;;;;;;;;2042393;29;1242;-77
2021/12/17 04:04:45;;;;;;;;;;;;;;;;;;2049784;29;1269;-78
2021/12/17 04:06:07;;;;;;;;;;;;;;;;;;2049417;28;1859;-75
2021/12/17 04:07:41;;;;;;;;;;;;;;;;;;2030133;29;1445;-76
2021/12/17 04:09:21;;;;;;;;;;;;;;;;;;2026234;29;1174;-77
2021/12/17 04:10:40;;;;;;;;;;;;;;;;;;2026345;29;1315;-77
2021/12/17 04:11:41;;;;;;;;;;;;;;;;;;2036245;29;2030;-76
2021/12/17 04:12:58;;;;;;;;;;;;;;;;;;2042176;29;1617;-77
2021/12/17 04:14:00;;;;;;;;;;;;;;;;;;2034566;29;1356;-77
2021/12/17 04:15:05;;;;;;;;;;;;;;;;;;2041892;29;1840;-77
2021/12/17 04:16:09;;;;;;;;;;;;;;;;;;2049884;29;2253;-76
2021/12/17 04:17:10;;;;;;;;;;;;;;;;;;2034541;29;1505;-76
2021/12/17 04:18:12;;;;;;;;;;;;;;;;;;2042583;29;1206;-76
2021/12/17 04:19:12;;;;;;;;;;;;;;;;;;2050103;28;1291;-77
2021/12/17 04:20:14;;;;;;;;;;;;;;;;;;2050257;29;1432;-76
2021/12/17 04:21:15;;;;;;;;;;;;;;;;;;2046810;28;1364;-76
2021/12/17 04:22:20;;;;;;;;;;;;;;;;;;2054252;28;1502;-77
2021/12/17 04:23:21;;;;;;;;;;;;;;;;;;2057956;28;1269;-76
2021/12/17 04:24:23;;;;;;;;;;;;;;;;;;2050307;29;1265;-76
2021/12/17 04:25:25;;;;;;;;;;;;;;;;;;2042050;29;1313;-76
2021/12/17 04:26:28;;;;;;;;;;;;;;;;;;2050824;28;1322;-76
2021/12/17 04:27:38;;;;;;;;;;;;;;;;;;2057747;28;1512;-76
2021/12/17 04:28:44;;;;;;;;;;;;;;;;;;2050350;29;1379;-76
2021/12/17 04:29:45;;;;;;;;;;;;;;;;;;2050340;28;1251;-77
2021/12/17 04:30:48;;;;;;;;;;;;;;;;;;2057656;28;2016;-77
2021/12/17 04:31:53;;;;;;;;;;;;;;;;;;2049856;29;1414;-77
2021/12/17 04:32:55;;;;;;;;;;;;;;;;;;2042771;29;1340;-77
2021/12/17 04:33:56;;;;;;;;;;;;;;;;;;2050015;28;1637;-76
2021/12/17 04:35:00;;;;;;;;;;;;;;;;;;2057944;28;1262;-77
2021/12/17 04:36:12;;;;;;;;;;;;;;;;;;2049880;28;1980;-76
2021/12/17 04:37:13;;;;;;;;;;;;;;;;;;2050346;28;1285;-76
2021/12/17 04:38:31;;;;;;;;;;;;;;;;;;2050190;28;1758;-77
2021/12/17 04:39:32;;;;;;;;;;;;;;;;;;2041948;29;1193;-75
2021/12/17 04:40:35;;;;;;;;;;;;;;;;;;2050111;28;1232;-76
2021/12/17 04:41:48;;;;;;;;;;;;;;;;;;2063946;28;1856;-76
2021/12/17 04:42:59;;;;;;;;;;;;;;;;;;2058063;28;823;-77
2021/12/17 04:44:07;;;;;;;;;;;;;;;;;;2050073;29;1393;-78
2021/12/17 04:45:09;;;;;;;;;;;;;;;;;;2049932;29;1859;-76
2021/12/17 04:46:21;;;;;;;;;;;;;;;;;;2050039;28;1809;-77
2021/12/17 04:58:03;;;;;;;;;;;;;;;;;;2058122;28;1512;-76
2021/12/17 04:59:06;;;;;;;;;;;;;;;;;;2049663;29;1187;-76
2021/12/17 05:00:10;;;;;;;;;;;;;;;;;;2050260;28;1248;-76
2021/12/17 05:01:16;;;;;;;;;;;;;;;;;;2053313;28;2024;-76
2021/12/17 05:02:21;;;;;;;;;;;;;;;;;;2050234;28;1304;-76
2021/12/17 05:03:31;;;;;;;;;;;;;;;;;;2050849;28;1299;-76
2021/12/17 05:04:32;;;;;;;;;;;;;;;;;;2049872;29;1403;-76
2021/12/17 05:05:33;;;;;;;;;;;;;;;;;;2049657;28;1324;-76
2021/12/17 05:06:42;;;;;;;;;;;;;;;;;;2050472;28;2145;-77
2021/12/17 05:07:47;;;;;;;;;;;;;;;;;;2057586;28;1272;-77
2021/12/17 05:08:56;;;;;;;;;;;;;;;;;;2057965;28;1419;-76
2021/12/17 05:10:05;;;;;;;;;;;;;;;;;;2050509;28;1194;-77
2021/12/17 05:11:24;;;;;;;;;;;;;;;;;;2058083;28;2001;-77
2021/12/17 05:19:15;;;;;;;;;;;;;;;;;;2057308;28;1155;-77
2021/12/17 05:20:29;;;;;;;;;;;;;;;;;;2051521;28;1273;-78
2021/12/17 05:21:32;;;;;;;;;;;;;;;;;;2053213;28;1906;-77
2021/12/17 05:22:33;;;;;;;;;;;;;;;;;;2057482;28;1372;-77
2021/12/17 05:23:39;;;;;;;;;;;;;;;;;;2049518;28;1263;-76
2021/12/17 05:24:41;;;;;;;;;;;;;;;;;;2050210;28;1469;-77
2021/12/17 05:25:43;;;;;;;;;;;;;;;;;;2049455;29;1242;-77
2021/12/17 05:26:44;;;;;;;;;;;;;;;;;;2042412;28;1946;-77
2021/12/17 05:27:47;;;;;;;;;;;;;;;;;;2049474;29;955;-76
2021/12/17 05:28:48;;;;;;;;;;;;;;;;;;2057744;28;1338;-77
2021/12/17 05:29:50;;;;;;;;;;;;;;;;;;2057414;28;1399;-77
2021/12/17 05:30:51;;;;;;;;;;;;;;;;;;2049854;28;1837;-76
2021/12/17 05:31:52;;;;;;;;;;;;;;;;;;2049537;28;809;-77
2021/12/17 05:32:54;;;;;;;;;;;;;;;;;;2050090;29;1238;-77
2021/12/17 05:33:56;;;;;;;;;;;;;;;;;;2041677;29;1503;-79
2021/12/17 05:35:02;;;;;;;;;;;;;;;;;;2050478;28;1393;-78
2021/12/17 05:36:04;;;;;;;;;;;;;;;;;;2057978;28;1309;-78
2021/12/17 05:37:06;;;;;;;;;;;;;;;;;;2049339;29;1915;-78
2021/12/17 05:38:08;;;;;;;;;;;;;;;;;;2041752;29;1278;-78
2021/12/17 05:39:08;;;;;;;;;;;;;;;;;;2041383;29;1315;-79
2021/12/17 05:40:12;;;;;;;;;;;;;;;;;;2041667;29;1201;-79
2021/12/17 05:41:14;;;;;;;;;;;;;;;;;;2048585;28;1899;-77
2021/12/17 05:42:33;;;;;;;;;;;;;;;;;;2059137;28;1351;-78
2021/12/17 05:43:54;;;;;;;;;;;;;;;;;;2066024;28;1193;-79
2021/12/17 05:45:05;;;;;;;;;;;;;;;;;;2064233;28;1564;-78
2021/12/17 05:46:12;;;;;;;;;;;;;;;;;;2053619;28;1861;-78
2021/12/17 05:47:13;;;;;;;;;;;;;;;;;;2050231;28;1338;-77
2021/12/17 05:48:16;;;;;;;;;;;;;;;;;;2057537;28;1665;-78
2021/12/17 05:49:17;;;;;;;;;;;;;;;;;;2049666;28;1787;-78
2021/12/17 05:50:18;;;;;;;;;;;;;;;;;;2049721;28;1257;-77
2021/12/17 05:51:20;;;;;;;;;;;;;;;;;;2062003;28;2020;-78
2021/12/17 05:52:21;;;;;;;;;;;;;;;;;;2056524;28;1392;-79
2021/12/17 05:53:22;;;;;;;;;;;;;;;;;;2049530;28;1458;-79
2021/12/17 05:54:25;;;;;;;;;;;;;;;;;;2057650;28;1827;-79
2021/12/17 05:55:25;;;;;;;;;;;;;;;;;;2057560;28;1531;-78
2021/12/17 05:56:27;;;;;;;;;;;;;;;;;;2043935;29;1809;-76
2021/12/17 05:57:28;;;;;;;;;;;;;;;;;;2049186;29;1422;-76
2021/12/17 05:58:30;;;;;;;;;;;;;;;;;;2052616;28;1843;-77
2021/12/17 05:59:34;;;;;;;;;;;;;;;;;;2049348;28;1207;-76
2021/12/17 06:00:38;;;;;;;;;;;;;;;;;;2057777;28;1531;-77
2021/12/17 06:02:00;;;;;;;;;;;;;;;;;;2057593;28;1114;-76
2021/12/17 06:03:03;;;;;;;;;;;;;;;;;;2057421;28;1291;-77
2021/12/17 06:04:29;;;;;;;;;;;;;;;;;;2044238;29;1782;-76
2021/12/17 06:05:37;;;;;;;;;;;;;;;;;;2048666;29;1314;-77
2021/12/17 06:06:38;;;;;;;;;;;;;;;;;;2055814;28;1810;-76
2021/12/17 06:07:40;;;;;;;;;;;;;;;;;;2056780;28;1473;-76
2021/12/17 06:08:41;;;;;;;;;;;;;;;;;;2049517;29;1258;-77
2021/12/17 06:09:43;;;;;;;;;;;;;;;;;;2049172;28;1323;-76
2021/12/17 06:10:48;;;;;;;;;;;;;;;;;;2057406;28;1909;-77
2021/12/17 06:11:50;;;;;;;;;;;;;;;;;;2057404;28;1630;-78
2021/12/17 06:12:52;;;;;;;;;;;;;;;;;;2057600;28;1417;-78
2021/12/17 06:13:53;;;;;;;;;;;;;;;;;;2065488;28;1463;-77
2021/12/17 06:15:00;;;;;;;;;;;;;;;;;;2057330;28;1192;-78
2021/12/17 06:16:02;;;;;;;;;;;;;;;;;;2057526;28;1966;-79
2021/12/17 06:17:04;;;;;;;;;;;;;;;;;;2056933;28;1903;-78
2021/12/17 06:18:14;;;;;;;;;;;;;;;;;;2057517;28;1894;-77
2021/12/17 06:19:17;;;;;;;;;;;;;;;;;;2064279;28;1780;-77
2021/12/17 06:20:22;;;;;;;;;;;;;;;;;;2057977;28;1555;-78
2021/12/17 06:21:26;;;;;;;;;;;;;;;;;;2047523;28;1781;-77
2021/12/17 06:22:27;;;;;;;;;;;;;;;;;;2049511;28;1378;-80
2021/12/17 06:23:34;;;;;;;;;;;;;;;;;;2049303;29;1538;-77
2021/12/17 06:24:35;;;;;;;;;;;;;;;;;;2049414;29;1337;-78
2021/12/17 06:25:37;;;;;;;;;;;;;;;;;;2049626;29;1351;-77
2021/12/17 06:26:38;;;;;;;;;;;;;;;;;;2051102;28;1831;-77
2021/12/17 06:27:41;;;;;;;;;;;;;;;;;;2053776;28;2025;-77
2021/12/17 06:28:43;;;;;;;;;;;;;;;;;;2049523;29;1212;-77
2021/12/17 06:29:45;;;;;;;;;;;;;;;;;;2046912;29;1759;-77
2021/12/17 06:30:51;;;;;;;;;;;;;;;;;;2049972;28;1539;-78
2021/12/17 06:31:59;;;;;;;;;;;;;;;;;;2049597;29;1351;-77
2021/12/17 06:33:00;;;;;;;;;;;;;;;;;;2041388;29;1784;-78
2021/12/17 06:34:04;;;;;;;;;;;;;;;;;;2042813;28;1856;-77
2021/12/17 06:35:08;;;;;;;;;;;;;;;;;;2057350;28;1452;-77
2021/12/17 06:36:10;;;;;;;;;;;;;;;;;;2057109;28;1846;-76
2021/12/17 06:37:10;;;;;;;;;;;;;;;;;;2056888;28;1914;-77
2021/12/17 06:38:13;;;;;;;;;;;;;;;;;;2049598;29;1358;-78
2021/12/17 06:39:14;;;;;;;;;;;;;;;;;;2049154;29;1713;-77
2021/12/17 06:40:16;;;;;;;;;;;;;;;;;;2054832;28;1777;-77
2021/12/17 06:41:17;;;;;;;;;;;;;;;;;;2057662;28;1981;-77
2021/12/17 06:42:18;;;;;;;;;;;;;;;;;;2049460;29;1197;-77
2021/12/17 06:43:23;;;;;;;;;;;;;;;;;;2049348;29;1218;-77
2021/12/17 06:44:26;;;;;;;;;;;;;;;;;;2049455;29;1497;-77
2021/12/17 06:45:41;;;;;;;;;;;;;;;;;;2041885;29;1761;-78
2021/12/17 06:46:55;;;;;;;;;;;;;;;;;;2043260;29;1841;-77
2021/12/17 06:47:58;;;;;;;;;;;;;;;;;;2050918;28;1146;-77
2021/12/17 06:49:18;;;;;;;;;;;;;;;;;;2049007;29;1222;-77
2021/12/17 06:55:02;;;;;;;;;;;;;;;;;;2058530;28;1099;-77
2021/12/17 06:57:11;;;;;;;;;;;;;;;;;;2048910;28;1172;-78
2021/12/17 07:00:13;;;;;;;;;;;;;;;;;;2059397;28;1561;-78
2021/12/17 07:06:51;;;;;;;;;;;;;;;;;;2057511;28;1691;-80
2021/12/17 07:09:09;;;;;;;;;;;;;;;;;;2059286;28;1038;-77
2021/12/17 07:10:15;;;;;;;;;;;;;;;;;;2050071;29;1424;-77
2021/12/17 07:11:33;;;;;;;;;;;;;;;;;;2052339;28;1803;-76
2021/12/17 07:21:20;;;;;;;;;;;;;;;;;;2006785;29;1707;-76
2021/12/17 07:22:28;;;;;;;;;;;;;;;;;;2026765;29;1778;-76
2021/12/17 07:28:04;;;;;;;;;;;;;;;;;;2034257;29;1547;-76
2021/12/17 07:32:32;;;;;;;;;;;;;;;;;;2050598;29;1869;-77
2021/12/17 07:33:39;;;;;;;;;;;;;;;;;;2050550;29;872;-77
2021/12/17 07:36:20;;;;;;;;;;;;;;;;;;2023378;29;1514;-77
2021/12/17 07:38:51;;;;;;;;;;;;;;;;;;2018095;29;1799;-77
2021/12/17 07:40:19;;;;;;;;;;;;;;;;;;2018918;29;1580;-78
2021/12/17 07:41:24;;;;;;;;;;;;;;;;;;2039350;28;1798;-77
2021/12/17 07:42:29;;;;;;;;;;;;;;;;;;2050734;29;1528;-76
2021/12/17 07:43:37;;;;;;;;;;;;;;;;;;2050395;28;1006;-77
2021/12/17 07:44:44;;;;;;;;;;;;;;;;;;2050572;29;1692;-76
2021/12/17 07:46:06;;;;;;;;;;;;;;;;;;2049569;28;1774;-77
2021/12/17 07:47:07;;;;;;;;;;;;;;;;;;2050189;29;1719;-76
2021/12/17 07:48:08;;;;;;;;;;;;;;;;;;2041986;29;1677;-77
2021/12/17 07:49:25;;;;;;;;;;;;;;;;;;2051143;28;1426;-76
2021/12/17 07:50:26;;;;;;;;;;;;;;;;;;2049596;29;1518;-77
2021/12/17 07:51:33;;;;;;;;;;;;;;;;;;2050433;28;1907;-78
2021/12/17 07:52:36;;;;;;;;;;;;;;;;;;2050697;29;1395;-77
2021/12/17 07:53:38;;;;;;;;;;;;;;;;;;2049938;28;1536;-78
2021/12/17 07:54:47;;;;;;;;;;;;;;;;;;2050348;29;2044;-76
2021/12/17 07:55:48;;;;;;;;;;;;;;;;;;2049453;28;1697;-78
2021/12/17 07:56:55;;;;;;;;;;;;;;;;;;2043859;29;1617;-77
2021/12/17 07:57:58;;;;;;;;;;;;;;;;;;2042500;29;1971;-76
2021/12/17 07:59:08;;;;;;;;;;;;;;;;;;2043339;29;1123;-77
2021/12/17 08:00:09;;;;;;;;;;;;;;;;;;2050030;28;1635;-78
2021/12/17 08:01:16;;;;;;;;;;;;;;;;;;2051165;28;2108;-76
2021/12/17 08:02:20;;;;;;;;;;;;;;;;;;2050257;29;1557;-77
2021/12/17 08:03:30;;;;;;;;;;;;;;;;;;2051151;28;1266;-78
2021/12/17 08:04:53;;;;;;;;;;;;;;;;;;2056953;28;1405;-77
2021/12/17 08:05:56;;;;;;;;;;;;;;;;;;2049931;28;1895;-76
2021/12/17 08:06:58;;;;;;;;;;;;;;;;;;2050288;28;1121;-78
2021/12/17 08:08:03;;;;;;;;;;;;;;;;;;2057408;28;1436;-76
2021/12/17 08:09:05;;;;;;;;;;;;;;;;;;2050473;29;1559;-77
2021/12/17 08:10:07;;;;;;;;;;;;;;;;;;2049744;28;1874;-77
2021/12/17 08:11:08;;;;;;;;;;;;;;;;;;2047372;28;1657;-77
2021/12/17 08:12:10;;;;;;;;;;;;;;;;;;2045997;28;1588;-78
2021/12/17 08:13:27;;;;;;;;;;;;;;;;;;2050338;29;1450;-77
2021/12/17 08:14:29;;;;;;;;;;;;;;;;;;2050661;28;1237;-77
2021/12/17 08:15:37;;;;;;;;;;;;;;;;;;2049569;29;1666;-77
2021/12/17 08:16:45;;;;;;;;;;;;;;;;;;2044179;28;1935;-76
2021/12/17 08:18:09;;;;;;;;;;;;;;;;;;2041951;29;1898;-78
2021/12/17 08:24:57;;;;;;;;;;;;;;;;;;2055925;28;1573;-77
2021/12/17 08:26:12;;;;;;;;;;;;;;;;;;2054991;28;1593;-77
2021/12/17 08:27:30;;;;;;;;;;;;;;;;;;2045562;28;1825;-77
2021/12/17 08:28:52;;;;;;;;;;;;;;;;;;2060413;28;1521;-77
2021/12/17 08:30:07;;;;;;;;;;;;;;;;;;2061982;28;1868;-77
2021/12/17 08:31:10;;;;;;;;;;;;;;;;;;2064681;28;1869;-75
2021/12/17 08:32:12;;;;;;;;;;;;;;;;;;2063769;28;1628;-76
2021/12/17 08:33:28;;;;;;;;;;;;;;;;;;2059616;28;1359;-76
2021/12/17 08:34:29;;;;;;;;;;;;;;;;;;2058395;28;1620;-77
2021/12/17 08:35:31;;;;;;;;;;;;;;;;;;2055796;28;1658;-77
2021/12/17 08:36:37;;;;;;;;;;;;;;;;;;2053471;28;1855;-77
2021/12/17 08:37:39;;;;;;;;;;;;;;;;;;2049921;29;1915;-78
2021/12/17 08:38:40;;;;;;;;;;;;;;;;;;2042151;29;1315;-76
2021/12/17 08:40:04;;;;;;;;;;;;;;;;;;2055271;28;1427;-77
2021/12/17 08:41:11;;;;;;;;;;;;;;;;;;2058249;28;1787;-76
2021/12/17 08:42:12;;;;;;;;;;;;;;;;;;2056810;28;1689;-77
2021/12/17 08:43:13;;;;;;;;;;;;;;;;;;2065562;28;1775;-78
2021/12/17 08:44:19;;;;;;;;;;;;;;;;;;2066172;28;1652;-77
2021/12/17 08:45:43;;;;;;;;;;;;;;;;;;2067150;28;1518;-77
2021/12/17 08:47:05;;;;;;;;;;;;;;;;;;2058631;28;934;-78
2021/12/17 08:48:08;;;;;;;;;;;;;;;;;;2049761;28;1250;-76
2021/12/17 08:49:21;;;;;;;;;;;;;;;;;;2047594;28;1583;-77
2021/12/17 08:50:49;;;;;;;;;;;;;;;;;;2057613;28;1733;-78
2021/12/17 08:51:52;;;;;;;;;;;;;;;;;;2065482;28;1743;-78
2021/12/17 08:52:53;;;;;;;;;;;;;;;;;;2057677;28;1491;-77
2021/12/17 08:53:54;;;;;;;;;;;;;;;;;;2057794;28;1301;-77
2021/12/17 08:54:57;;;;;;;;;;;;;;;;;;2056877;28;1428;-77
2021/12/17 08:55:58;;;;;;;;;;;;;;;;;;2062157;28;1850;-77
2021/12/17 08:56:59;;;;;;;;;;;;;;;;;;2057774;28;1821;-77
2021/12/17 08:58:05;;;;;;;;;;;;;;;;;;2065332;28;1972;-76
2021/12/17 08:59:08;;;;;;;;;;;;;;;;;;2057274;28;1148;-78
2021/12/17 09:00:35;;;;;;;;;;;;;;;;;;2061711;28;1444;-78
2021/12/17 09:01:38;;;;;;;;;;;;;;;;;;2056912;28;1822;-77
2021/12/17 09:02:41;;;;;;;;;;;;;;;;;;2047830;28;1749;-76
2021/12/17 09:04:01;;;;;;;;;;;;;;;;;;2061019;28;722;-76
2021/12/17 09:05:09;;;;;;;;;;;;;;;;;;2057019;28;1708;-77
2021/12/17 09:06:16;;;;;;;;;;;;;;;;;;2046553;28;1837;-77
2021/12/17 09:07:23;;;;;;;;;;;;;;;;;;2049782;28;1562;-78
2021/12/17 09:08:30;;;;;;;;;;;;;;;;;;2049620;29;1216;-77
2021/12/17 09:09:34;;;;;;;;;;;;;;;;;;2049810;28;1767;-77
2021/12/17 09:10:48;;;;;;;;;;;;;;;;;;2057331;28;1721;-78
2021/12/17 09:11:50;;;;;;;;;;;;;;;;;;2044443;28;1443;-76
2021/12/17 09:13:03;;;;;;;;;;;;;;;;;;2053455;28;1665;-77
2021/12/17 09:14:06;;;;;;;;;;;;;;;;;;2049857;29;1689;-77
2021/12/17 09:15:16;;;;;;;;;;;;;;;;;;2057865;28;1462;-76
2021/12/17 09:16:36;;;;;;;;;;;;;;;;;;2064802;28;1767;-77
2021/12/17 09:17:37;;;;;;;;;;;;;;;;;;2063979;28;1607;-77
2021/12/17 09:18:41;;;;;;;;;;;;;;;;;;2057447;28;1610;-77
2021/12/17 09:19:53;;;;;;;;;;;;;;;;;;2049652;28;1559;-77
2021/12/17 09:20:57;;;;;;;;;;;;;;;;;;2053518;28;1889;-77
2021/12/17 09:22:13;;;;;;;;;;;;;;;;;;2043010;28;1659;-76
2021/12/17 09:23:22;;;;;;;;;;;;;;;;;;2057376;28;1212;-78
2021/12/17 09:24:23;;;;;;;;;;;;;;;;;;2049517;29;1315;-77
2021/12/17 09:25:44;;;;;;;;;;;;;;;;;;2057275;28;816;-77
2021/12/17 09:26:51;;;;;;;;;;;;;;;;;;2062678;28;1104;-78
2021/12/17 09:27:54;;;;;;;;;;;;;;;;;;2064296;28;1692;-77
2021/12/17 09:29:05;;;;;;;;;;;;;;;;;;2065534;28;1716;-77
2021/12/17 09:30:07;;;;;;;;;;;;;;;;;;2057383;28;1727;-77
2021/12/17 09:31:11;;;;;;;;;;;;;;;;;;2053946;28;1684;-76
2021/12/17 09:32:12;;;;;;;;;;;;;;;;;;2057295;28;1579;-77
2021/12/17 09:33:13;;;;;;;;;;;;;;;;;;2065635;28;1647;-77
2021/12/17 09:34:15;;;;;;;;;;;;;;;;;;2073227;28;1781;-77
2021/12/17 09:35:17;;;;;;;;;;;;;;;;;;2064436;28;1404;-76
2021/12/17 09:36:18;;;;;;;;;;;;;;;;;;2057658;28;1533;-77
2021/12/17 09:37:20;;;;;;;;;;;;;;;;;;2060634;28;1511;-77
2021/12/17 09:38:21;;;;;;;;;;;;;;;;;;2065309;28;1915;-77
2021/12/17 09:39:23;;;;;;;;;;;;;;;;;;2065186;28;950;-77
2021/12/17 09:40:24;;;;;;;;;;;;;;;;;;2056536;28;1652;-77
2021/12/17 09:41:26;;;;;;;;;;;;;;;;;;2047816;28;1877;-77
2021/12/17 09:42:27;;;;;;;;;;;;;;;;;;2058932;28;1537;-77
2021/12/17 09:43:30;;;;;;;;;;;;;;;;;;2057419;28;1528;-77
2021/12/17 09:44:30;;;;;;;;;;;;;;;;;;2049587;28;1795;-76
2021/12/17 09:45:32;;;;;;;;;;;;;;;;;;2056059;28;1569;-76
2021/12/17 09:46:34;;;;;;;;;;;;;;;;;;2062721;28;863;-77
2021/12/17 09:47:35;;;;;;;;;;;;;;;;;;2057352;28;1688;-78
2021/12/17 09:48:36;;;;;;;;;;;;;;;;;;2057576;28;860;-77
2021/12/17 09:49:38;;;;;;;;;;;;;;;;;;2066183;28;978;-77
2021/12/17 09:50:39;;;;;;;;;;;;;;;;;;2056839;28;1582;-77
2021/12/17 09:51:41;;;;;;;;;;;;;;;;;;2042288;28;1927;-78
2021/12/17 09:52:42;;;;;;;;;;;;;;;;;;2055683;28;1787;-77
2021/12/17 09:53:46;;;;;;;;;;;;;;;;;;2065438;28;947;-76
2021/12/17 09:54:46;;;;;;;;;;;;;;;;;;2065222;28;1369;-77